sensor_id;sensor_type;location;lat;lon;timestamp;pressure;altitude;pressure_sealevel;temperature;humidity
18145;BME280;14857;41.200;-8.326;2022-11-18T00:01:36;99770.03;;;14.39;100.00
18145;BME280;14857;41.200;-8.326;2022-11-18T00:04:06;99788.28;;;14.69;100.00
18145;BME280;14857;41.200;-8.326;2022-11-18T00:06:35;99794.19;;;14.81;100.00
18145;BME280;14857;41.200;-8.326;2022-11-18T00:09:03;99787.72;;;14.65;100.00
18145;BME280;14857;41.200;-8.326;2022-11-18T00:11:32;99792.97;;;14.75;100.00
18145;BME280;14857;41.200;-8.326;2022-11-18T00:14:19;99792.81;;;14.77;100.00
18145;BME280;14857;41.200;-8.326;2022-11-18T00:16:51;99774.88;;;14.53;100.00
18145;BME280;14857;41.200;-8.326;2022-11-18T00:19:23;99788.84;;;14.63;100.00
18145;BME280;14857;41.200;-8.326;2022-11-18T00:21:52;99796.88;;;14.52;100.00
18145;BME280;14857;41.200;-8.326;2022-11-18T00:24:21;99788.28;;;14.31;100.00
18145;BME280;14857;41.200;-8.326;2022-11-18T00:26:50;99797.84;;;14.41;100.00
18145;BME280;14857;41.200;-8.326;2022-11-18T00:29:19;99791.91;;;14.49;100.00
18145;BME280;14857;41.200;-8.326;2022-11-18T00:31:48;99794.66;;;14.66;100.00
18145;BME280;14857;41.200;-8.326;2022-11-18T00:34:17;99788.00;;;14.72;100.00
18145;BME280;14857;41.200;-8.326;2022-11-18T00:36:47;99779.13;;;14.73;100.00
18145;BME280;14857;41.200;-8.326;2022-11-18T00:39:17;99766.25;;;14.70;100.00
18145;BME280;14857;41.200;-8.326;2022-11-18T00:41:47;99762.81;;;14.60;100.00
18145;BME280;14857;41.200;-8.326;2022-11-18T00:44:33;99768.22;;;14.58;100.00
18145;BME280;14857;41.200;-8.326;2022-11-18T00:47:03;99784.25;;;14.65;100.00
18145;BME280;14857;41.200;-8.326;2022-11-18T00:49:32;99780.94;;;14.63;100.00
18145;BME280;14857;41.200;-8.326;2022-11-18T00:52:02;99789.25;;;14.68;100.00
18145;BME280;14857;41.200;-8.326;2022-11-18T00:54:31;99789.25;;;14.68;100.00
18145;BME280;14857;41.200;-8.326;2022-11-18T00:57:00;99794.94;;;14.73;100.00
18145;BME280;14857;41.200;-8.326;2022-11-18T00:59:30;99796.19;;;14.69;100.00
18145;BME280;14857;41.200;-8.326;2022-11-18T01:01:58;99792.13;;;14.75;100.00
18145;BME280;14857;41.200;-8.326;2022-11-18T01:04:27;99785.09;;;14.65;100.00
18145;BME280;14857;41.200;-8.326;2022-11-18T01:06:56;99794.78;;;14.55;100.00
18145;BME280;14857;41.200;-8.326;2022-11-18T01:09:26;99791.34;;;14.55;100.00
18145;BME280;14857;41.200;-8.326;2022-11-18T01:11:55;99794.09;;;14.63;100.00
18145;BME280;14857;41.200;-8.326;2022-11-18T01:14:41;99735.13;;;14.27;100.00
18145;BME280;14857;41.200;-8.326;2022-11-18T01:17:10;99792.84;;;14.57;100.00
18145;BME280;14857;41.200;-8.326;2022-11-18T01:19:38;99792.72;;;14.59;100.00
18145;BME280;14857;41.200;-8.326;2022-11-18T01:22:07;99792.16;;;14.55;100.00
18145;BME280;14857;41.200;-8.326;2022-11-18T01:24:37;99792.44;;;14.62;100.00
18145;BME280;14857;41.200;-8.326;2022-11-18T01:27:05;99775.16;;;14.50;100.00
18145;BME280;14857;41.200;-8.326;2022-11-18T01:29:35;99793.41;;;14.61;100.00
18145;BME280;14857;41.200;-8.326;2022-11-18T01:32:04;99797.69;;;14.62;100.00
18145;BME280;14857;41.200;-8.326;2022-11-18T01:34:51;99790.09;;;14.59;100.00
18145;BME280;14857;41.200;-8.326;2022-11-18T01:37:19;99787.19;;;14.62;100.00
18145;BME280;14857;41.200;-8.326;2022-11-18T01:39:49;99796.44;;;14.76;100.00
18145;BME280;14857;41.200;-8.326;2022-11-18T01:42:17;99798.09;;;14.67;100.00
18145;BME280;14857;41.200;-8.326;2022-11-18T01:44:59;99794.78;;;14.55;100.00
18145;BME280;14857;41.200;-8.326;2022-11-18T01:47:31;99799.50;;;14.52;100.00
18145;BME280;14857;41.200;-8.326;2022-11-18T01:50:00;99787.16;;;14.24;100.00
18145;BME280;14857;41.200;-8.326;2022-11-18T01:52:30;99805.72;;;14.51;100.00
18145;BME280;14857;41.200;-8.326;2022-11-18T01:55:05;99797.16;;;14.49;100.00
18145;BME280;14857;41.200;-8.326;2022-11-18T01:57:35;99806.56;;;14.61;100.00
18145;BME280;14857;41.200;-8.326;2022-11-18T02:00:05;99807.94;;;14.55;100.00
18145;BME280;14857;41.200;-8.326;2022-11-18T02:02:36;99815.16;;;14.63;100.00
18145;BME280;14857;41.200;-8.326;2022-11-18T02:05:09;99814.44;;;14.61;100.00
18145;BME280;14857;41.200;-8.326;2022-11-18T02:07:41;99804.38;;;14.47;100.00
18145;BME280;14857;41.200;-8.326;2022-11-18T02:10:18;99812.81;;;14.60;100.00
18145;BME280;14857;41.200;-8.326;2022-11-18T02:12:48;99810.19;;;14.60;100.00
18145;BME280;14857;41.200;-8.326;2022-11-18T02:15:22;99808.22;;;14.62;100.00
18145;BME280;14857;41.200;-8.326;2022-11-18T02:17:57;99815.16;;;14.73;100.00
18145;BME280;14857;41.200;-8.326;2022-11-18T02:20:31;99798.38;;;14.54;100.00
18145;BME280;14857;41.200;-8.326;2022-11-18T02:27:06;99801.56;;;14.29;100.00
18145;BME280;14857;41.200;-8.326;2022-11-18T02:29:46;99815.66;;;14.28;100.00
18145;BME280;14857;41.200;-8.326;2022-11-18T02:32:23;99819.72;;;14.42;100.00
18145;BME280;14857;41.200;-8.326;2022-11-18T02:34:58;99821.47;;;14.12;100.00
18145;BME280;14857;41.200;-8.326;2022-11-18T02:37:33;99813.19;;;14.27;100.00
18145;BME280;14857;41.200;-8.326;2022-11-18T02:40:07;99823.44;;;14.20;100.00
18145;BME280;14857;41.200;-8.326;2022-11-18T02:42:41;99824.25;;;14.20;100.00
18145;BME280;14857;41.200;-8.326;2022-11-18T02:45:16;99818.44;;;14.27;100.00
18145;BME280;14857;41.200;-8.326;2022-11-18T02:47:45;99828.69;;;14.30;100.00
18145;BME280;14857;41.200;-8.326;2022-11-18T02:50:20;99822.75;;;14.28;100.00
18145;BME280;14857;41.200;-8.326;2022-11-18T02:52:53;99819.59;;;14.34;100.00
18145;BME280;14857;41.200;-8.326;2022-11-18T02:55:24;99828.41;;;14.33;100.00
18145;BME280;14857;41.200;-8.326;2022-11-18T02:57:56;99840.44;;;14.26;100.00
18145;BME280;14857;41.200;-8.326;2022-11-18T03:00:26;99830.63;;;14.08;100.00
18145;BME280;14857;41.200;-8.326;2022-11-18T03:02:55;99838.06;;;14.03;100.00
18145;BME280;14857;41.200;-8.326;2022-11-18T03:05:31;99835.16;;;13.97;100.00
18145;BME280;14857;41.200;-8.326;2022-11-18T03:08:08;99839.97;;;13.82;100.00
18145;BME280;14857;41.200;-8.326;2022-11-18T03:10:50;99855.44;;;13.76;100.00
18145;BME280;14857;41.200;-8.326;2022-11-18T03:13:23;99849.72;;;13.71;100.00
18145;BME280;14857;41.200;-8.326;2022-11-18T03:16:00;99859.41;;;13.70;100.00
18145;BME280;14857;41.200;-8.326;2022-11-18T03:18:36;99854.91;;;13.82;100.00
18145;BME280;14857;41.200;-8.326;2022-11-18T03:21:15;99856.97;;;13.88;100.00
18145;BME280;14857;41.200;-8.326;2022-11-18T03:23:50;99857.09;;;13.86;100.00
18145;BME280;14857;41.200;-8.326;2022-11-18T03:26:24;99852.94;;;13.74;100.00
18145;BME280;14857;41.200;-8.326;2022-11-18T03:29:00;99863.16;;;13.77;100.00
18145;BME280;14857;41.200;-8.326;2022-11-18T03:31:36;99851.28;;;13.73;100.00
18145;BME280;14857;41.200;-8.326;2022-11-18T03:34:11;99875.91;;;13.82;100.00
18145;BME280;14857;41.200;-8.326;2022-11-18T03:36:44;99877.44;;;13.84;100.00
18145;BME280;14857;41.200;-8.326;2022-11-18T03:39:19;99865.41;;;13.82;100.00
18145;BME280;14857;41.200;-8.326;2022-11-18T03:41:53;99885.72;;;13.80;100.00
18145;BME280;14857;41.200;-8.326;2022-11-18T03:44:26;99896.91;;;13.72;100.00
18145;BME280;14857;41.200;-8.326;2022-11-18T03:47:01;99903.56;;;13.76;100.00
18145;BME280;14857;41.200;-8.326;2022-11-18T03:49:36;99901.97;;;13.64;100.00
18145;BME280;14857;41.200;-8.326;2022-11-18T03:52:11;99897.69;;;13.63;100.00
18145;BME280;14857;41.200;-8.326;2022-11-18T03:54:44;99881.97;;;13.22;100.00
18145;BME280;14857;41.200;-8.326;2022-11-18T03:57:18;99894.00;;;13.03;100.00
18145;BME280;14857;41.200;-8.326;2022-11-18T03:59:51;99902.13;;;13.11;100.00
18145;BME280;14857;41.200;-8.326;2022-11-18T04:02:24;99911.63;;;12.92;100.00
18145;BME280;14857;41.200;-8.326;2022-11-18T04:04:56;99925.94;;;12.88;100.00
18145;BME280;14857;41.200;-8.326;2022-11-18T04:07:31;99920.44;;;12.91;100.00
18145;BME280;14857;41.200;-8.326;2022-11-18T04:10:06;99933.81;;;12.56;100.00
18145;BME280;14857;41.200;-8.326;2022-11-18T04:12:39;99938.56;;;12.62;100.00
18145;BME280;14857;41.200;-8.326;2022-11-18T04:15:10;99936.19;;;12.48;100.00
18145;BME280;14857;41.200;-8.326;2022-11-18T04:17:41;99913.91;;;12.53;100.00
18145;BME280;14857;41.200;-8.326;2022-11-18T04:20:14;99936.09;;;12.81;100.00
18145;BME280;14857;41.200;-8.326;2022-11-18T04:22:52;99942.53;;;12.88;100.00
18145;BME280;14857;41.200;-8.326;2022-11-18T04:25:21;99928.22;;;12.81;100.00
18145;BME280;14857;41.200;-8.326;2022-11-18T04:27:50;99920.22;;;12.83;100.00
18145;BME280;14857;41.200;-8.326;2022-11-18T04:30:19;99916.31;;;12.77;100.00
18145;BME280;14857;41.200;-8.326;2022-11-18T04:32:48;99926.78;;;12.88;100.00
18145;BME280;14857;41.200;-8.326;2022-11-18T04:35:17;99934.16;;;12.83;100.00
18145;BME280;14857;41.200;-8.326;2022-11-18T04:37:45;99919.66;;;12.79;100.00
18145;BME280;14857;41.200;-8.326;2022-11-18T04:40:14;99946.59;;;12.81;100.00
18145;BME280;14857;41.200;-8.326;2022-11-18T04:42:43;99926.22;;;12.74;100.00
18145;BME280;14857;41.200;-8.326;2022-11-18T04:45:11;99943.81;;;12.83;100.00
18145;BME280;14857;41.200;-8.326;2022-11-18T04:47:40;99940.06;;;12.76;100.00
18145;BME280;14857;41.200;-8.326;2022-11-18T04:50:10;99948.53;;;12.79;100.00
18145;BME280;14857;41.200;-8.326;2022-11-18T04:52:38;99949.38;;;12.69;100.00
18145;BME280;14857;41.200;-8.326;2022-11-18T04:55:07;99952.84;;;12.69;100.00
18145;BME280;14857;41.200;-8.326;2022-11-18T04:57:36;99959.75;;;12.70;100.00
18145;BME280;14857;41.200;-8.326;2022-11-18T05:00:06;99956.41;;;12.68;100.00
18145;BME280;14857;41.200;-8.326;2022-11-18T05:05:54;99969.34;;;12.60;100.00
18145;BME280;14857;41.200;-8.326;2022-11-18T05:08:22;99971.16;;;12.37;100.00
18145;BME280;14857;41.200;-8.326;2022-11-18T05:10:51;99969.94;;;12.41;100.00
18145;BME280;14857;41.200;-8.326;2022-11-18T05:13:40;99964.16;;;12.16;100.00
18145;BME280;14857;41.200;-8.326;2022-11-18T05:16:07;99959.75;;;12.05;100.00
18145;BME280;14857;41.200;-8.326;2022-11-18T05:18:36;99983.22;;;12.18;100.00
18145;BME280;14857;41.200;-8.326;2022-11-18T05:21:06;99982.84;;;12.22;100.00
18145;BME280;14857;41.200;-8.326;2022-11-18T05:23:35;99995.09;;;12.22;100.00
18145;BME280;14857;41.200;-8.326;2022-11-18T05:26:04;99985.81;;;12.29;100.00
18145;BME280;14857;41.200;-8.326;2022-11-18T05:28:34;99987.72;;;12.27;100.00
18145;BME280;14857;41.200;-8.326;2022-11-18T05:31:05;99979.88;;;12.16;100.00
18145;BME280;14857;41.200;-8.326;2022-11-18T05:33:34;99991.09;;;12.18;100.00
18145;BME280;14857;41.200;-8.326;2022-11-18T05:36:04;99964.50;;;11.78;100.00
18145;BME280;14857;41.200;-8.326;2022-11-18T05:38:34;99988.31;;;11.86;100.00
18145;BME280;14857;41.200;-8.326;2022-11-18T05:41:03;100005.97;;;11.95;100.00
18145;BME280;14857;41.200;-8.326;2022-11-18T05:43:32;100010.03;;;12.10;100.00
18145;BME280;14857;41.200;-8.326;2022-11-18T05:46:00;99998.72;;;12.21;100.00
18145;BME280;14857;41.200;-8.326;2022-11-18T05:48:29;100001.03;;;11.68;100.00
18145;BME280;14857;41.200;-8.326;2022-11-18T05:50:57;100013.56;;;11.76;100.00
18145;BME280;14857;41.200;-8.326;2022-11-18T05:53:26;100022.88;;;12.02;100.00
18145;BME280;14857;41.200;-8.326;2022-11-18T05:56:00;100022.75;;;12.26;100.00
18145;BME280;14857;41.200;-8.326;2022-11-18T05:58:32;100032.53;;;12.13;100.00
18145;BME280;14857;41.200;-8.326;2022-11-18T06:01:03;100022.75;;;12.03;100.00
18145;BME280;14857;41.200;-8.326;2022-11-18T06:03:37;100032.00;;;11.74;100.00
18145;BME280;14857;41.200;-8.326;2022-11-18T06:06:08;100029.91;;;11.79;100.00
18145;BME280;14857;41.200;-8.326;2022-11-18T06:08:41;100035.84;;;11.92;100.00
18145;BME280;14857;41.200;-8.326;2022-11-18T06:11:14;100041.53;;;11.86;100.00
18145;BME280;14857;41.200;-8.326;2022-11-18T06:13:47;100049.31;;;11.88;100.00
18145;BME280;14857;41.200;-8.326;2022-11-18T06:16:19;100053.09;;;11.84;100.00
18145;BME280;14857;41.200;-8.326;2022-11-18T06:18:48;100059.41;;;11.81;100.00
18145;BME280;14857;41.200;-8.326;2022-11-18T06:21:17;100056.44;;;11.51;100.00
18145;BME280;14857;41.200;-8.326;2022-11-18T06:23:45;100065.56;;;11.69;100.00
18145;BME280;14857;41.200;-8.326;2022-11-18T06:26:16;100080.38;;;11.81;100.00
18145;BME280;14857;41.200;-8.326;2022-11-18T06:28:46;100076.59;;;11.62;100.00
18145;BME280;14857;41.200;-8.326;2022-11-18T06:31:16;100095.53;;;11.65;100.00
18145;BME280;14857;41.200;-8.326;2022-11-18T06:33:44;100099.94;;;11.65;100.00
18145;BME280;14857;41.200;-8.326;2022-11-18T06:36:13;100113.97;;;11.87;100.00
18145;BME280;14857;41.200;-8.326;2022-11-18T06:38:41;100100.63;;;11.90;100.00
18145;BME280;14857;41.200;-8.326;2022-11-18T06:41:10;100109.22;;;12.03;100.00
18145;BME280;14857;41.200;-8.326;2022-11-18T06:43:40;100106.75;;;12.13;100.00
18145;BME280;14857;41.200;-8.326;2022-11-18T06:46:10;100104.09;;;12.02;100.00
18145;BME280;14857;41.200;-8.326;2022-11-18T06:48:56;100076.09;;;11.91;100.00
18145;BME280;14857;41.200;-8.326;2022-11-18T06:51:27;100115.13;;;11.83;100.00
18145;BME280;14857;41.200;-8.326;2022-11-18T06:53:55;100110.88;;;11.93;100.00
18145;BME280;14857;41.200;-8.326;2022-11-18T06:56:24;100107.72;;;11.53;100.00
18145;BME280;14857;41.200;-8.326;2022-11-18T06:58:56;100107.03;;;11.75;100.00
18145;BME280;14857;41.200;-8.326;2022-11-18T07:01:26;100095.69;;;11.40;100.00
18145;BME280;14857;41.200;-8.326;2022-11-18T07:03:57;100117.00;;;11.70;100.00
18145;BME280;14857;41.200;-8.326;2022-11-18T07:06:28;100113.81;;;11.54;100.00
18145;BME280;14857;41.200;-8.326;2022-11-18T07:08:59;100128.63;;;11.66;100.00
18145;BME280;14857;41.200;-8.326;2022-11-18T07:11:28;100131.25;;;11.66;100.00
18145;BME280;14857;41.200;-8.326;2022-11-18T07:13:58;100103.63;;;11.62;100.00
18145;BME280;14857;41.200;-8.326;2022-11-18T07:16:27;100119.50;;;11.72;100.00
18145;BME280;14857;41.200;-8.326;2022-11-18T07:18:56;100134.31;;;11.84;100.00
18145;BME280;14857;41.200;-8.326;2022-11-18T07:21:26;100132.53;;;11.84;100.00
18145;BME280;14857;41.200;-8.326;2022-11-18T07:23:55;100144.56;;;11.87;100.00
18145;BME280;14857;41.200;-8.326;2022-11-18T07:26:24;100160.03;;;11.90;100.00
18145;BME280;14857;41.200;-8.326;2022-11-18T07:28:52;100135.72;;;11.77;100.00
18145;BME280;14857;41.200;-8.326;2022-11-18T07:31:23;100152.09;;;11.91;100.00
18145;BME280;14857;41.200;-8.326;2022-11-18T07:33:51;100139.41;;;11.74;100.00
18145;BME280;14857;41.200;-8.326;2022-11-18T07:36:22;100152.56;;;11.85;100.00
18145;BME280;14857;41.200;-8.326;2022-11-18T07:38:51;100161.00;;;11.65;100.00
18145;BME280;14857;41.200;-8.326;2022-11-18T07:41:21;100158.06;;;11.46;100.00
18145;BME280;14857;41.200;-8.326;2022-11-18T07:43:51;100178.41;;;11.66;100.00
18145;BME280;14857;41.200;-8.326;2022-11-18T07:46:30;100182.88;;;11.64;100.00
18145;BME280;14857;41.200;-8.326;2022-11-18T07:49:00;100183.69;;;11.77;100.00
18145;BME280;14857;41.200;-8.326;2022-11-18T07:51:32;100180.53;;;11.85;100.00
18145;BME280;14857;41.200;-8.326;2022-11-18T07:54:04;100194.63;;;11.95;100.00
18145;BME280;14857;41.200;-8.326;2022-11-18T07:56:33;100188.50;;;11.83;100.00
18145;BME280;14857;41.200;-8.326;2022-11-18T07:59:02;100189.09;;;11.87;100.00
18145;BME280;14857;41.200;-8.326;2022-11-18T08:01:32;100193.56;;;11.97;100.00
18145;BME280;14857;41.200;-8.326;2022-11-18T08:04:05;100187.63;;;11.72;100.00
18145;BME280;14857;41.200;-8.326;2022-11-18T08:06:35;100178.91;;;11.71;100.00
18145;BME280;14857;41.200;-8.326;2022-11-18T08:09:05;100169.91;;;11.86;100.00
18145;BME280;14857;41.200;-8.326;2022-11-18T08:11:34;100184.38;;;11.92;100.00
18145;BME280;14857;41.200;-8.326;2022-11-18T08:14:03;100173.53;;;11.96;100.00
18145;BME280;14857;41.200;-8.326;2022-11-18T08:16:33;100190.16;;;12.19;100.00
18145;BME280;14857;41.200;-8.326;2022-11-18T08:19:01;100194.19;;;12.12;100.00
18145;BME280;14857;41.200;-8.326;2022-11-18T08:21:29;100187.38;;;12.09;100.00
18145;BME280;14857;41.200;-8.326;2022-11-18T08:23:58;100196.19;;;11.97;100.00
18145;BME280;14857;41.200;-8.326;2022-11-18T08:26:26;100194.31;;;12.10;100.00
18145;BME280;14857;41.200;-8.326;2022-11-18T08:28:56;100202.59;;;12.39;100.00
18145;BME280;14857;41.200;-8.326;2022-11-18T08:31:27;100208.72;;;12.62;100.00
18145;BME280;14857;41.200;-8.326;2022-11-18T08:33:59;100206.22;;;12.83;100.00
18145;BME280;14857;41.200;-8.326;2022-11-18T08:36:29;100210.41;;;13.19;100.00
18145;BME280;14857;41.200;-8.326;2022-11-18T08:38:59;100214.88;;;13.61;100.00
18145;BME280;14857;41.200;-8.326;2022-11-18T08:41:31;100215.13;;;13.90;100.00
18145;BME280;14857;41.200;-8.326;2022-11-18T08:44:00;100209.19;;;13.88;100.00
18145;BME280;14857;41.200;-8.326;2022-11-18T08:46:29;100201.72;;;14.25;100.00
18145;BME280;14857;41.200;-8.326;2022-11-18T08:48:59;100215.16;;;14.22;100.00
18145;BME280;14857;41.200;-8.326;2022-11-18T08:51:28;100209.25;;;14.50;100.00
18145;BME280;14857;41.200;-8.326;2022-11-18T08:53:56;100204.50;;;14.95;100.00
18145;BME280;14857;41.200;-8.326;2022-11-18T08:56:25;100204.00;;;15.10;100.00
18145;BME280;14857;41.200;-8.326;2022-11-18T08:58:53;100209.88;;;15.23;100.00
18145;BME280;14857;41.200;-8.326;2022-11-18T09:01:23;100221.66;;;15.79;100.00
18145;BME280;14857;41.200;-8.326;2022-11-18T09:03:51;100219.41;;;16.70;100.00
18145;BME280;14857;41.200;-8.326;2022-11-18T09:06:22;100224.28;;;17.29;100.00
18145;BME280;14857;41.200;-8.326;2022-11-18T09:08:51;100217.19;;;17.29;100.00
18145;BME280;14857;41.200;-8.326;2022-11-18T09:11:22;100213.09;;;17.45;100.00
18145;BME280;14857;41.200;-8.326;2022-11-18T09:13:53;100220.34;;;18.05;100.00
18145;BME280;14857;41.200;-8.326;2022-11-18T09:16:42;100214.47;;;19.14;100.00
18145;BME280;14857;41.200;-8.326;2022-11-18T09:19:10;100220.19;;;19.93;100.00
18145;BME280;14857;41.200;-8.326;2022-11-18T09:22:00;100221.41;;;21.58;100.00
18145;BME280;14857;41.200;-8.326;2022-11-18T09:24:29;100223.72;;;22.89;100.00
18145;BME280;14857;41.200;-8.326;2022-11-18T09:26:58;100225.31;;;24.20;95.00
18145;BME280;14857;41.200;-8.326;2022-11-18T09:29:26;100219.78;;;25.05;87.34
18145;BME280;14857;41.200;-8.326;2022-11-18T09:31:55;100234.75;;;25.34;83.87
18145;BME280;14857;41.200;-8.326;2022-11-18T09:34:23;100234.13;;;27.30;78.22
18145;BME280;14857;41.200;-8.326;2022-11-18T09:36:52;100236.91;;;27.04;77.26
18145;BME280;14857;41.200;-8.326;2022-11-18T09:39:24;100234.28;;;27.86;72.39
18145;BME280;14857;41.200;-8.326;2022-11-18T09:41:59;100238.38;;;29.01;68.98
18145;BME280;14857;41.200;-8.326;2022-11-18T09:44:46;100242.59;;;30.52;60.73
18145;BME280;14857;41.200;-8.326;2022-11-18T09:47:24;100246.81;;;30.71;58.90
18145;BME280;14857;41.200;-8.326;2022-11-18T09:49:53;100249.38;;;28.50;63.34
18145;BME280;14857;41.200;-8.326;2022-11-18T09:52:26;100237.00;;;25.65;75.06
18145;BME280;14857;41.200;-8.326;2022-11-18T09:55:10;100247.28;;;24.01;85.13
18145;BME280;14857;41.200;-8.326;2022-11-18T09:57:44;100248.25;;;22.84;95.05
18145;BME280;14857;41.200;-8.326;2022-11-18T10:00:14;100256.44;;;22.83;99.15
18145;BME280;14857;41.200;-8.326;2022-11-18T10:02:51;100253.91;;;24.05;94.70
18145;BME280;14857;41.200;-8.326;2022-11-18T10:05:24;100252.13;;;25.44;85.49
18145;BME280;14857;41.200;-8.326;2022-11-18T10:08:01;100247.38;;;24.50;85.27
18145;BME280;14857;41.200;-8.326;2022-11-18T10:10:40;100241.09;;;23.94;91.20
18145;BME280;14857;41.200;-8.326;2022-11-18T10:13:16;100246.22;;;25.55;84.96
18145;BME280;14857;41.200;-8.326;2022-11-18T10:15:57;100248.06;;;27.65;72.83
18145;BME280;14857;41.200;-8.326;2022-11-18T10:18:30;100254.44;;;30.10;62.05
18145;BME280;14857;41.200;-8.326;2022-11-18T10:21:34;100256.78;;;30.94;57.31
18145;BME280;14857;41.200;-8.326;2022-11-18T10:24:09;100259.63;;;31.11;55.03
18145;BME280;14857;41.200;-8.326;2022-11-18T10:26:41;100263.66;;;31.48;51.27
18145;BME280;14857;41.200;-8.326;2022-11-18T10:29:09;100262.75;;;31.31;51.47
18145;BME280;14857;41.200;-8.326;2022-11-18T10:31:39;100261.78;;;31.49;50.66
18145;BME280;14857;41.200;-8.326;2022-11-18T10:34:10;100264.44;;;31.72;48.23
18145;BME280;14857;41.200;-8.326;2022-11-18T10:36:41;100250.22;;;32.55;45.97
18145;BME280;14857;41.200;-8.326;2022-11-18T10:39:11;100265.72;;;32.93;45.58
18145;BME280;14857;41.200;-8.326;2022-11-18T10:41:45;100262.94;;;29.11;50.16
18145;BME280;14857;41.200;-8.326;2022-11-18T10:44:36;100249.22;;;27.76;55.91
18145;BME280;14857;41.200;-8.326;2022-11-18T10:47:25;100249.28;;;24.56;64.23
18145;BME280;14857;41.200;-8.326;2022-11-18T10:49:56;100250.72;;;23.95;70.84
18145;BME280;14857;41.200;-8.326;2022-11-18T10:52:26;100245.63;;;22.24;84.13
18145;BME280;14857;41.200;-8.326;2022-11-18T10:57:55;100253.06;;;19.43;100.00
18145;BME280;14857;41.200;-8.326;2022-11-18T11:00:45;100243.50;;;20.40;100.00
18145;BME280;14857;41.200;-8.326;2022-11-18T11:03:31;100261.84;;;20.98;100.00
18145;BME280;14857;41.200;-8.326;2022-11-18T11:06:29;100256.75;;;22.05;91.27
18145;BME280;14857;41.200;-8.326;2022-11-18T11:09:00;100255.41;;;21.39;95.36
18145;BME280;14857;41.200;-8.326;2022-11-18T11:11:31;100268.63;;;23.00;90.47
18145;BME280;14857;41.200;-8.326;2022-11-18T11:14:12;100260.56;;;24.79;81.60
18145;BME280;14857;41.200;-8.326;2022-11-18T11:16:49;100261.06;;;23.18;84.74
18145;BME280;14857;41.200;-8.326;2022-11-18T11:19:22;100264.59;;;23.84;83.99
18145;BME280;14857;41.200;-8.326;2022-11-18T11:21:51;100273.00;;;23.81;83.75
18145;BME280;14857;41.200;-8.326;2022-11-18T11:24:21;100264.72;;;22.73;82.63
18145;BME280;14857;41.200;-8.326;2022-11-18T11:26:59;100268.13;;;21.99;91.57
18145;BME280;14857;41.200;-8.326;2022-11-18T11:30:14;100254.03;;;22.13;93.70
18145;BME280;14857;41.200;-8.326;2022-11-18T11:33:15;100247.13;;;21.34;100.00
18145;BME280;14857;41.200;-8.326;2022-11-18T11:35:51;100252.94;;;20.67;93.45
18145;BME280;14857;41.200;-8.326;2022-11-18T11:38:33;100262.41;;;20.69;92.29
18145;BME280;14857;41.200;-8.326;2022-11-18T11:41:08;100257.09;;;22.85;87.20
18145;BME280;14857;41.200;-8.326;2022-11-18T11:43:53;100253.13;;;25.84;76.52
18145;BME280;14857;41.200;-8.326;2022-11-18T11:46:36;100234.88;;;27.95;63.15
18145;BME280;14857;41.200;-8.326;2022-11-18T11:49:17;100242.09;;;29.73;56.29
18145;BME280;14857;41.200;-8.326;2022-11-18T11:51:49;100241.19;;;30.85;52.56
18145;BME280;14857;41.200;-8.326;2022-11-18T11:54:35;100252.84;;;30.32;50.00
18145;BME280;14857;41.200;-8.326;2022-11-18T11:57:16;100249.75;;;31.16;47.47
18145;BME280;14857;41.200;-8.326;2022-11-18T11:59:54;100242.53;;;32.02;45.84
18145;BME280;14857;41.200;-8.326;2022-11-18T12:02:41;100244.31;;;32.41;43.74
18145;BME280;14857;41.200;-8.326;2022-11-18T12:05:21;100233.50;;;32.74;45.09
18145;BME280;14857;41.200;-8.326;2022-11-18T12:07:56;100218.72;;;31.19;44.93
18145;BME280;14857;41.200;-8.326;2022-11-18T12:10:38;100227.09;;;32.02;43.18
18145;BME280;14857;41.200;-8.326;2022-11-18T12:13:32;100225.19;;;30.83;44.71
18145;BME280;14857;41.200;-8.326;2022-11-18T12:16:15;100222.47;;;30.37;47.73
18145;BME280;14857;41.200;-8.326;2022-11-18T12:18:53;100214.06;;;29.07;50.25
18145;BME280;14857;41.200;-8.326;2022-11-18T12:24:37;100196.63;;;29.46;47.59
18145;BME280;14857;41.200;-8.326;2022-11-18T12:27:11;100196.84;;;30.28;46.15
18145;BME280;14857;41.200;-8.326;2022-11-18T12:29:51;100192.09;;;28.86;49.06
18145;BME280;14857;41.200;-8.326;2022-11-18T12:32:28;100185.88;;;27.04;53.06
18145;BME280;14857;41.200;-8.326;2022-11-18T12:35:04;100155.28;;;25.41;57.90
18145;BME280;14857;41.200;-8.326;2022-11-18T12:37:43;100173.72;;;25.64;57.66
18145;BME280;14857;41.200;-8.326;2022-11-18T12:40:46;100175.78;;;24.45;61.16
18145;BME280;14857;41.200;-8.326;2022-11-18T12:46:55;100183.88;;;20.02;83.37
18145;BME280;14857;41.200;-8.326;2022-11-18T12:52:53;100197.28;;;19.26;96.28
18145;BME280;14857;41.200;-8.326;2022-11-18T12:55:30;100209.53;;;18.85;100.00
18145;BME280;14857;41.200;-8.326;2022-11-18T12:57:59;100205.28;;;18.67;100.00
18145;BME280;14857;41.200;-8.326;2022-11-18T13:00:33;100216.03;;;18.22;100.00
18145;BME280;14857;41.200;-8.326;2022-11-18T13:03:23;100218.13;;;17.65;100.00
18145;BME280;14857;41.200;-8.326;2022-11-18T13:05:59;100226.41;;;16.98;100.00
18145;BME280;14857;41.200;-8.326;2022-11-18T13:08:30;100232.41;;;16.81;100.00
18145;BME280;14857;41.200;-8.326;2022-11-18T13:11:06;100239.53;;;16.52;100.00
18145;BME280;14857;41.200;-8.326;2022-11-18T13:13:54;100239.00;;;16.39;100.00
18145;BME280;14857;41.200;-8.326;2022-11-18T13:16:37;100250.28;;;15.93;100.00
18145;BME280;14857;41.200;-8.326;2022-11-18T13:19:32;100250.97;;;15.85;100.00
18145;BME280;14857;41.200;-8.326;2022-11-18T13:22:01;100246.34;;;15.77;100.00
18145;BME280;14857;41.200;-8.326;2022-11-18T13:24:50;100244.13;;;15.63;100.00
18145;BME280;14857;41.200;-8.326;2022-11-18T13:27:26;100246.75;;;15.54;100.00